createdAt,value
2023-09-16T00:01:20.462Z,100795.25
2023-09-16T00:03:47.811Z,100791.53
2023-09-16T00:06:15.438Z,100787.84
2023-09-16T00:08:44.227Z,100791.34
2023-09-16T00:11:11.337Z,100783.13
2023-09-16T00:13:38.390Z,100787.13
2023-09-16T00:16:06.038Z,100787.16
2023-09-16T00:18:33.338Z,100779.13
2023-09-16T00:21:00.202Z,100779.84
2023-09-16T00:23:26.972Z,100778.75
2023-09-16T00:25:53.786Z,100786.38
2023-09-16T00:28:20.378Z,100783.38
2023-09-16T00:30:47.122Z,100776.41
2023-09-16T00:33:14.055Z,100776.50
2023-09-16T00:35:40.660Z,100772.47
2023-09-16T00:38:07.275Z,100770.00
2023-09-16T00:40:33.902Z,100768.69
2023-09-16T00:43:01.109Z,100770.28
2023-09-16T00:45:29.046Z,100764.50
2023-09-16T00:47:55.766Z,100767.03
2023-09-16T00:50:22.751Z,100772.44
2023-09-16T00:52:54.780Z,100768.13
2023-09-16T00:55:21.958Z,100762.34
2023-09-16T00:57:51.802Z,100768.13
2023-09-16T01:00:19.029Z,100763.47
2023-09-16T01:02:46.955Z,100765.88
2023-09-16T01:05:18.275Z,100767.38
2023-09-16T01:07:50.118Z,100762.19
2023-09-16T01:10:21.911Z,100761.34
2023-09-16T01:12:51.191Z,100750.88
2023-09-16T01:15:20.022Z,100754.81
2023-09-16T01:18:05.769Z,100752.81
2023-09-16T01:20:33.873Z,100743.28
2023-09-16T01:23:00.915Z,100737.84
2023-09-16T01:25:29.944Z,100743.78
2023-09-16T01:27:56.999Z,100749.78
2023-09-16T01:30:27.300Z,100745.00
2023-09-16T01:33:00.431Z,100750.88
2023-09-16T01:35:33.534Z,100749.63
2023-09-16T01:38:00.708Z,100751.72
2023-09-16T01:40:30.298Z,100745.53
2023-09-16T01:42:59.931Z,100748.88
2023-09-16T01:45:40.284Z,100754.38
2023-09-16T01:48:07.287Z,100745.91
2023-09-16T01:50:34.064Z,100753.66
2023-09-16T01:53:02.212Z,100738.53
2023-09-16T01:55:29.475Z,100737.34
2023-09-16T01:57:56.042Z,100734.22
2023-09-16T02:00:24.553Z,100740.25
2023-09-16T02:02:52.274Z,100735.75
2023-09-16T02:05:18.982Z,100738.53
2023-09-16T02:07:45.722Z,100735.66
2023-09-16T02:10:13.341Z,100727.13
2023-09-16T02:12:41.727Z,100726.06
2023-09-16T02:15:11.078Z,100722.78
2023-09-16T02:17:40.238Z,100730.06
2023-09-16T02:20:14.288Z,100732.88
2023-09-16T02:22:45.446Z,100734.78
2023-09-16T02:25:12.580Z,100726.59
2023-09-16T02:27:42.118Z,100727.78
2023-09-16T02:30:08.905Z,100728.78
2023-09-16T02:32:36.237Z,100724.47
2023-09-16T02:35:04.681Z,100727.03
2023-09-16T02:37:31.279Z,100737.06
2023-09-16T02:39:57.929Z,100721.78
2023-09-16T02:42:24.539Z,100723.72
2023-09-16T02:44:51.823Z,100726.94
2023-09-16T02:47:18.449Z,100723.72
2023-09-16T02:49:45.200Z,100725.41
2023-09-16T02:52:12.185Z,100727.38
2023-09-16T02:54:38.819Z,100728.34
2023-09-16T02:57:05.419Z,100723.38
2023-09-16T02:59:32.379Z,100720.50
2023-09-16T03:01:59.141Z,100724.84
2023-09-16T03:04:25.767Z,100721.97
2023-09-16T03:06:52.723Z,100727.00
2023-09-16T03:09:20.575Z,100721.31
2023-09-16T03:11:48.220Z,100717.84
2023-09-16T03:14:15.627Z,100711.53
2023-09-16T03:19:11.837Z,100709.78
2023-09-16T03:21:39.236Z,100713.53
2023-09-16T03:24:06.133Z,100710.47
2023-09-16T03:26:34.156Z,100706.47
2023-09-16T03:29:01.297Z,100711.84
2023-09-16T03:31:29.459Z,100711.84
2023-09-16T03:34:02.689Z,100706.81
2023-09-16T03:36:29.733Z,100699.25
2023-09-16T03:38:56.404Z,100700.72
2023-09-16T03:41:24.577Z,100700.25
2023-09-16T03:43:57.978Z,100697.06
2023-09-16T03:46:25.370Z,100701.72
2023-09-16T03:48:53.155Z,100698.97
2023-09-16T03:51:21.753Z,100690.31
2023-09-16T03:53:49.950Z,100681.78
2023-09-16T03:56:16.669Z,100686.75
2023-09-16T03:58:43.281Z,100686.44
2023-09-16T04:01:10.924Z,100691.94
2023-09-16T04:03:38.065Z,100690.28
2023-09-16T04:06:05.848Z,100693.03
2023-09-16T04:08:41.326Z,100695.97
2023-09-16T04:11:11.038Z,100684.63
2023-09-16T04:13:38.545Z,100684.50
2023-09-16T04:16:05.463Z,100683.19
2023-09-16T04:18:32.221Z,100686.94
2023-09-16T04:20:58.883Z,100684.94
2023-09-16T04:23:26.297Z,100686.94
2023-09-16T04:25:57.433Z,100691.66
2023-09-16T04:28:24.771Z,100691.28
2023-09-16T04:30:53.729Z,100680.56
2023-09-16T04:33:22.423Z,100680.22
2023-09-16T04:35:50.773Z,100672.50
2023-09-16T04:38:19.592Z,100686.28
2023-09-16T04:40:50.615Z,100678.19
2023-09-16T04:43:18.266Z,100684.06
2023-09-16T04:45:50.127Z,100681.81
2023-09-16T04:48:24.561Z,100681.16
2023-09-16T04:50:51.252Z,100689.91
2023-09-16T04:53:19.087Z,100687.47
2023-09-16T04:55:45.971Z,100690.91
2023-09-16T04:58:12.769Z,100687.94
2023-09-16T05:00:40.215Z,100691.66
2023-09-16T05:03:08.107Z,100697.72
2023-09-16T05:05:36.343Z,100687.81
2023-09-16T05:08:04.623Z,100687.41
2023-09-16T05:10:33.144Z,100685.13
2023-09-16T05:13:00.577Z,100682.97
2023-09-16T05:15:28.646Z,100682.81
2023-09-16T05:17:55.752Z,100677.78
2023-09-16T05:20:22.704Z,100679.41
2023-09-16T05:22:49.962Z,100672.53
2023-09-16T05:25:18.103Z,100678.28
2023-09-16T05:27:45.407Z,100680.09
2023-09-16T05:30:12.303Z,100684.56
2023-09-16T05:32:39.578Z,100687.97
2023-09-16T05:35:06.428Z,100684.78
2023-09-16T05:37:33.129Z,100686.66
2023-09-16T05:40:01.910Z,100685.25
2023-09-16T05:42:29.860Z,100688.59
2023-09-16T05:44:56.481Z,100685.94
2023-09-16T05:47:23.749Z,100682.75
2023-09-16T05:49:50.444Z,100691.00
2023-09-16T05:52:17.103Z,100694.16
2023-09-16T05:54:44.351Z,100693.69
2023-09-16T05:57:11.439Z,100686.47
2023-09-16T05:59:38.047Z,100693.56
2023-09-16T06:02:05.286Z,100692.69
2023-09-16T06:04:32.720Z,100690.59
2023-09-16T06:06:59.541Z,100690.25
2023-09-16T06:09:26.238Z,100693.91
2023-09-16T06:11:53.348Z,100688.47
2023-09-16T06:14:20.126Z,100697.41
2023-09-16T06:16:47.471Z,100688.41
2023-09-16T06:19:14.154Z,100698.56
2023-09-16T06:21:40.974Z,100698.50
2023-09-16T06:24:07.888Z,100694.81
2023-09-16T06:26:34.579Z,100702.78
2023-09-16T06:29:01.212Z,100709.28
2023-09-16T06:31:27.786Z,100706.91
2023-09-16T06:33:56.481Z,100705.84
2023-09-16T06:36:23.897Z,100693.56
2023-09-16T06:38:51.081Z,100689.38
2023-09-16T06:41:18.708Z,100692.84
2023-09-16T06:43:45.340Z,100689.28
2023-09-16T06:46:12.019Z,100685.34
2023-09-16T06:48:39.186Z,100695.53
2023-09-16T06:51:06.402Z,100684.59
2023-09-16T06:53:33.524Z,100694.34
2023-09-16T06:56:00.981Z,100695.84
2023-09-16T06:58:27.577Z,100690.81
2023-09-16T07:00:54.317Z,100691.22
2023-09-16T07:03:22.081Z,100692.00
2023-09-16T07:05:51.664Z,100693.84
2023-09-16T07:08:19.848Z,100691.31
2023-09-16T07:10:46.590Z,100688.19
2023-09-16T07:13:13.206Z,100704.59
2023-09-16T07:15:39.954Z,100704.09
2023-09-16T07:18:06.751Z,100705.97
2023-09-16T07:20:33.982Z,100708.19
2023-09-16T07:23:00.980Z,100706.66
2023-09-16T07:25:27.674Z,100697.78
2023-09-16T07:27:56.072Z,100697.25
2023-09-16T07:30:23.835Z,100694.56
2023-09-16T07:32:51.969Z,100692.81
2023-09-16T07:35:19.398Z,100700.34
2023-09-16T07:37:46.419Z,100701.53
2023-09-16T07:40:13.801Z,100699.06
2023-09-16T07:42:40.806Z,100696.66
2023-09-16T07:45:08.036Z,100689.47
2023-09-16T07:47:34.947Z,100695.72
2023-09-16T07:50:23.846Z,100692.16
2023-09-16T07:52:50.425Z,100691.00
2023-09-16T07:55:18.065Z,100688.28
2023-09-16T07:57:44.668Z,100695.56
2023-09-16T08:00:12.095Z,100692.13
2023-09-16T08:02:39.048Z,100692.84
2023-09-16T08:05:06.846Z,100691.66
2023-09-16T08:07:33.422Z,100697.91
2023-09-16T08:10:00.011Z,100700.84
2023-09-16T08:12:29.262Z,100700.50
2023-09-16T08:14:56.108Z,100697.13
2023-09-16T08:17:23.101Z,100702.03
2023-09-16T08:19:49.654Z,100704.69
2023-09-16T08:22:16.491Z,100705.59
2023-09-16T08:24:44.100Z,100701.25
2023-09-16T08:27:32.996Z,100706.69
2023-09-16T08:29:59.572Z,100718.56
2023-09-16T08:32:30.355Z,100705.03
2023-09-16T08:34:57.886Z,100697.00
2023-09-16T08:37:24.981Z,100700.53
2023-09-16T08:39:51.690Z,100701.84
2023-09-16T08:42:27.725Z,100698.47
2023-09-16T08:44:58.774Z,100700.72
2023-09-16T08:47:29.999Z,100699.34
2023-09-16T08:50:05.932Z,100705.06
2023-09-16T08:52:54.143Z,100704.50
2023-09-16T08:55:22.296Z,100699.88
2023-09-16T08:57:54.658Z,100693.03
2023-09-16T09:00:22.151Z,100692.56
2023-09-16T09:02:51.169Z,100695.88
2023-09-16T09:05:20.434Z,100695.50
2023-09-16T09:07:47.302Z,100697.78
2023-09-16T09:10:14.355Z,100696.97
2023-09-16T09:12:43.358Z,100697.59
2023-09-16T09:15:12.639Z,100697.41
2023-09-16T09:17:57.016Z,100691.75
2023-09-16T09:20:26.482Z,100698.19
2023-09-16T09:22:53.723Z,100699.81
2023-09-16T09:25:25.225Z,100691.41
2023-09-16T09:27:53.561Z,100682.88
2023-09-16T09:30:25.652Z,100679.22
2023-09-16T09:32:52.855Z,100681.16
2023-09-16T09:35:22.782Z,100684.69
2023-09-16T09:37:50.104Z,100690.13
2023-09-16T09:40:18.422Z,100685.69
2023-09-16T09:42:53.677Z,100685.13
2023-09-16T09:45:22.741Z,100689.22
2023-09-16T09:47:51.604Z,100686.88
2023-09-16T09:50:24.761Z,100692.03
2023-09-16T09:52:53.447Z,100696.22
2023-09-16T09:55:21.772Z,100694.56
2023-09-16T09:57:51.808Z,100685.00
2023-09-16T10:00:21.489Z,100683.09
2023-09-16T10:02:49.688Z,100682.97
2023-09-16T10:05:18.316Z,100684.34
2023-09-16T10:07:45.871Z,100681.31
2023-09-16T10:10:19.824Z,100676.63
2023-09-16T10:12:48.235Z,100676.66
2023-09-16T10:15:15.409Z,100671.44
2023-09-16T10:17:43.750Z,100673.44
2023-09-16T10:20:13.098Z,100662.59
2023-09-16T10:22:41.702Z,100654.41
2023-09-16T10:25:09.951Z,100660.16
2023-09-16T10:27:53.624Z,100653.44
2023-09-16T10:30:22.814Z,100649.16
2023-09-16T10:32:51.237Z,100648.59
2023-09-16T10:35:20.124Z,100648.03
2023-09-16T10:37:52.240Z,100656.03
2023-09-16T10:40:19.527Z,100636.56
2023-09-16T10:42:48.146Z,100650.03
2023-09-16T10:45:17.483Z,100650.47
2023-09-16T10:48:06.749Z,100649.78
2023-09-16T10:50:37.549Z,100654.59
2023-09-16T10:53:14.975Z,100655.13
2023-09-16T10:55:49.410Z,100645.81
2023-09-16T10:58:26.942Z,100646.63
2023-09-16T11:00:58.677Z,100646.75
2023-09-16T11:03:32.148Z,100638.44
2023-09-16T11:05:59.745Z,100641.41
2023-09-16T11:08:26.672Z,100636.44
2023-09-16T11:10:54.346Z,100629.78
2023-09-16T11:13:22.679Z,100638.59
2023-09-16T11:15:50.861Z,100633.72
2023-09-16T11:18:17.751Z,100649.34
2023-09-16T11:20:47.333Z,100641.38
2023-09-16T11:23:14.044Z,100640.59
2023-09-16T11:25:44.481Z,100638.25
2023-09-16T11:28:17.404Z,100637.09
2023-09-16T11:31:01.091Z,100639.38
2023-09-16T11:33:38.855Z,100636.72
2023-09-16T11:36:16.948Z,100637.81
2023-09-16T11:38:54.481Z,100636.91
2023-09-16T11:41:23.328Z,100627.22
2023-09-16T11:43:50.526Z,100629.91
2023-09-16T11:46:17.230Z,100631.25
2023-09-16T11:48:51.173Z,100622.50
2023-09-16T11:51:20.037Z,100630.34
2023-09-16T11:53:48.878Z,100629.97
2023-09-16T11:56:17.062Z,100632.59
2023-09-16T11:58:45.492Z,100632.00
2023-09-16T12:01:13.928Z,100635.28
2023-09-16T12:03:43.873Z,100627.88
2023-09-16T12:06:11.481Z,100629.06
2023-09-16T12:08:41.331Z,100623.91
2023-09-16T12:11:08.334Z,100626.19
2023-09-16T12:13:35.790Z,100620.34
2023-09-16T12:16:02.503Z,100618.53
2023-09-16T12:18:29.990Z,100616.00
2023-09-16T12:20:56.864Z,100617.28
2023-09-16T12:23:29.079Z,100605.97
2023-09-16T12:25:55.657Z,100610.03
2023-09-16T12:28:24.026Z,100608.50
2023-09-16T12:30:53.910Z,100611.31
2023-09-16T12:33:21.796Z,100608.56
2023-09-16T12:35:48.820Z,100599.19
2023-09-16T12:38:18.605Z,100595.81
2023-09-16T12:40:46.830Z,100597.94
2023-09-16T12:43:13.826Z,100591.09
2023-09-16T12:45:41.505Z,100597.38
2023-09-16T12:48:11.363Z,100595.56
2023-09-16T12:50:39.349Z,100598.50
2023-09-16T12:53:06.301Z,100596.91
2023-09-16T12:55:33.016Z,100591.03
2023-09-16T12:58:00.506Z,100587.03
2023-09-16T13:00:27.491Z,100589.03
2023-09-16T13:02:54.593Z,100587.19
2023-09-16T13:05:25.001Z,100586.75
2023-09-16T13:07:53.768Z,100573.50
2023-09-16T13:10:23.430Z,100578.94
2023-09-16T13:12:51.482Z,100572.88
2023-09-16T13:15:21.614Z,100565.09
2023-09-16T13:18:05.350Z,100564.44
2023-09-16T13:20:37.053Z,100558.09
2023-09-16T13:23:04.693Z,100562.41
2023-09-16T13:25:42.432Z,100556.69
2023-09-16T13:28:15.080Z,100554.03
2023-09-16T13:30:44.197Z,100546.75
2023-09-16T13:33:11.549Z,100547.25
2023-09-16T13:35:40.923Z,100555.69
2023-09-16T13:38:10.225Z,100563.69
2023-09-16T13:40:37.568Z,100553.72
2023-09-16T13:43:06.536Z,100553.94
2023-09-16T13:45:35.253Z,100543.97
2023-09-16T13:48:18.334Z,100549.44
2023-09-16T13:50:49.711Z,100546.97
2023-09-16T13:53:19.101Z,100546.13
2023-09-16T13:55:48.197Z,100534.22
2023-09-16T13:58:15.757Z,100538.00
2023-09-16T14:00:42.625Z,100532.53
2023-09-16T14:03:09.289Z,100536.88
2023-09-16T14:05:37.072Z,100528.72
2023-09-16T14:08:04.964Z,100526.22
2023-09-16T14:10:33.307Z,100538.47
2023-09-16T14:13:07.762Z,100533.28
2023-09-16T14:15:36.716Z,100528.19
2023-09-16T14:18:07.459Z,100533.00
2023-09-16T14:20:34.326Z,100525.06
2023-09-16T14:23:02.797Z,100527.38
2023-09-16T14:25:30.220Z,100528.94
2023-09-16T14:27:58.043Z,100531.34
2023-09-16T14:30:25.021Z,100526.31
2023-09-16T14:32:52.025Z,100524.66
2023-09-16T14:35:18.872Z,100518.22
2023-09-16T14:37:46.986Z,100523.66
2023-09-16T14:40:14.833Z,100521.09
2023-09-16T14:42:42.032Z,100519.72
2023-09-16T14:45:09.422Z,100518.41
2023-09-16T14:47:36.080Z,100523.81
2023-09-16T14:50:02.957Z,100518.44
2023-09-16T14:52:31.150Z,100519.22
2023-09-16T14:54:58.835Z,100512.19
2023-09-16T14:57:25.478Z,100527.28
2023-09-16T14:59:52.493Z,100521.50
2023-09-16T15:02:19.537Z,100527.50
2023-09-16T15:04:47.571Z,100525.69
2023-09-16T15:07:14.201Z,100521.69
2023-09-16T15:09:41.197Z,100526.16
2023-09-16T15:12:08.352Z,100524.28
2023-09-16T15:14:34.927Z,100537.09
2023-09-16T15:17:01.903Z,100522.56
2023-09-16T15:19:28.571Z,100522.88
2023-09-16T15:21:55.261Z,100532.28
2023-09-16T15:24:22.002Z,100524.22
2023-09-16T15:26:48.615Z,100528.03
2023-09-16T15:29:15.562Z,100528.88
2023-09-16T15:31:42.830Z,100522.56
2023-09-16T15:34:09.903Z,100522.00
2023-09-16T15:36:37.043Z,100524.88
2023-09-16T15:39:03.729Z,100522.00
2023-09-16T15:41:30.402Z,100518.41
2023-09-16T15:43:58.510Z,100519.75
2023-09-16T15:46:25.431Z,100522.91
2023-09-16T15:48:52.002Z,100523.03
2023-09-16T15:51:18.999Z,100523.78
2023-09-16T15:53:45.650Z,100525.22
2023-09-16T15:56:13.657Z,100532.47
2023-09-16T15:58:41.799Z,100525.91
2023-09-16T16:01:08.909Z,100523.25
2023-09-16T16:03:35.849Z,100527.34
2023-09-16T16:06:03.804Z,100523.28
2023-09-16T16:08:30.670Z,100532.66
2023-09-16T16:10:57.530Z,100526.44
2023-09-16T16:13:24.384Z,100523.59
2023-09-16T16:15:52.236Z,100529.91
2023-09-16T16:18:22.964Z,100524.09
2023-09-16T16:20:49.870Z,100524.84
2023-09-16T16:23:16.957Z,100526.75
2023-09-16T16:25:45.974Z,100517.50
2023-09-16T16:28:13.803Z,100518.84
2023-09-16T16:30:40.823Z,100525.13
2023-09-16T16:33:07.662Z,100522.13
2023-09-16T16:35:34.314Z,100523.81
2023-09-16T16:38:00.878Z,100527.19
2023-09-16T16:40:27.556Z,100519.13
2023-09-16T16:42:54.156Z,100524.09
2023-09-16T16:45:20.751Z,100519.19
2023-09-16T16:47:49.213Z,100523.75
2023-09-16T16:50:17.668Z,100522.03
2023-09-16T16:52:45.200Z,100528.22
2023-09-16T16:55:12.071Z,100533.91
2023-09-16T16:57:38.683Z,100532.75
2023-09-16T17:00:07.013Z,100532.81
2023-09-16T17:02:34.370Z,100538.78
2023-09-16T17:05:01.731Z,100535.22
2023-09-16T17:07:28.630Z,100540.00
2023-09-16T17:09:58.517Z,100543.66
2023-09-16T17:12:25.868Z,100541.97
2023-09-16T17:14:52.771Z,100548.03
2023-09-16T17:17:21.427Z,100547.34
2023-09-16T17:19:49.181Z,100547.16
2023-09-16T17:22:18.667Z,100544.09
2023-09-16T17:24:45.992Z,100541.88
2023-09-16T17:27:12.800Z,100539.88
2023-09-16T17:29:39.629Z,100546.91
2023-09-16T17:32:06.605Z,100540.94
2023-09-16T17:34:33.740Z,100545.47
2023-09-16T17:37:00.657Z,100549.63
2023-09-16T17:39:27.653Z,100547.63
2023-09-16T17:41:55.151Z,100542.53
2023-09-16T17:44:21.874Z,100549.66
2023-09-16T17:46:48.590Z,100545.06
2023-09-16T17:49:16.324Z,100541.34
2023-09-16T17:51:43.972Z,100547.91
2023-09-16T17:54:10.937Z,100553.84
2023-09-16T17:56:37.590Z,100555.31
2023-09-16T17:59:07.531Z,100554.03
2023-09-16T18:01:34.265Z,100557.84
2023-09-16T18:04:01.305Z,100555.13
2023-09-16T18:06:27.990Z,100550.53
2023-09-16T18:08:54.628Z,100550.31
2023-09-16T18:11:21.741Z,100549.50
2023-09-16T18:13:48.715Z,100545.44
2023-09-16T18:16:16.024Z,100555.41
2023-09-16T18:18:43.101Z,100551.88
2023-09-16T18:21:11.776Z,100569.06
2023-09-16T18:23:38.815Z,100566.06
2023-09-16T18:26:05.637Z,100560.81
2023-09-16T18:28:32.876Z,100566.59
2023-09-16T18:31:00.316Z,100569.78
2023-09-16T18:33:30.324Z,100573.22
2023-09-16T18:35:57.098Z,100577.13
2023-09-16T18:38:24.620Z,100578.53
2023-09-16T18:40:51.296Z,100576.47
2023-09-16T18:43:20.361Z,100582.94
2023-09-16T18:45:47.970Z,100578.84
2023-09-16T18:48:15.445Z,100584.16
2023-09-16T18:50:43.455Z,100587.34
2023-09-16T18:53:12.924Z,100585.81
2023-09-16T18:55:45.772Z,100580.47
2023-09-16T18:58:16.356Z,100586.03
2023-09-16T19:00:44.129Z,100589.16
2023-09-16T19:03:11.686Z,100601.28
2023-09-16T19:05:42.192Z,100592.41
2023-09-16T19:08:10.233Z,100602.00
2023-09-16T19:10:39.017Z,100597.69
2023-09-16T19:13:06.750Z,100600.25
2023-09-16T19:15:34.175Z,100600.47
2023-09-16T19:18:01.047Z,100595.94
2023-09-16T19:20:31.311Z,100595.16
2023-09-16T19:23:00.024Z,100597.28
2023-09-16T19:25:27.450Z,100593.97
2023-09-16T19:27:54.243Z,100594.69
2023-09-16T19:30:21.270Z,100601.25
2023-09-16T19:32:48.263Z,100594.16
2023-09-16T19:35:15.231Z,100605.75
2023-09-16T19:37:41.949Z,100602.69
2023-09-16T19:40:10.424Z,100597.63
2023-09-16T19:42:37.496Z,100599.56
2023-09-16T19:45:05.001Z,100604.00
2023-09-16T19:47:33.301Z,100606.72
2023-09-16T19:50:00.350Z,100607.41
2023-09-16T19:52:27.159Z,100606.38
2023-09-16T19:54:54.241Z,100611.25
2023-09-16T19:57:21.001Z,100611.72
2023-09-16T19:59:47.726Z,100611.53
2023-09-16T20:02:14.898Z,100603.34
2023-09-16T20:04:42.225Z,100601.63
2023-09-16T20:07:09.937Z,100601.25
2023-09-16T20:09:37.223Z,100606.06
2023-09-16T20:12:04.297Z,100598.97
2023-09-16T20:14:31.016Z,100599.19
2023-09-16T20:16:57.916Z,100597.94
2023-09-16T20:19:25.164Z,100600.53
2023-09-16T20:21:51.929Z,100602.19
2023-09-16T20:24:20.382Z,100595.47
2023-09-16T20:26:47.072Z,100601.09
2023-09-16T20:29:13.862Z,100596.72
2023-09-16T20:31:40.762Z,100598.22
2023-09-16T20:34:12.276Z,100594.91
2023-09-16T20:36:45.463Z,100595.94
2023-09-16T20:39:13.516Z,100595.16
2023-09-16T20:41:40.280Z,100593.91
2023-09-16T20:44:07.018Z,100581.38
2023-09-16T20:46:34.121Z,100587.25
2023-09-16T20:49:00.992Z,100588.47
2023-09-16T20:51:27.895Z,100576.13
2023-09-16T20:53:54.525Z,100580.97
2023-09-16T20:56:21.134Z,100587.63
2023-09-16T20:58:47.752Z,100585.56
2023-09-16T21:01:14.531Z,100584.97
2023-09-16T21:03:41.966Z,100577.63
2023-09-16T21:06:08.951Z,100586.41
2023-09-16T21:08:35.601Z,100587.69
2023-09-16T21:11:02.895Z,100578.69
2023-09-16T21:13:30.623Z,100579.31
2023-09-16T21:15:57.394Z,100577.19
2023-09-16T21:18:24.067Z,100569.72
2023-09-16T21:20:51.061Z,100574.53
2023-09-16T21:23:17.669Z,100574.34
2023-09-16T21:25:44.569Z,100563.72
2023-09-16T21:28:11.232Z,100562.66
2023-09-16T21:30:40.132Z,100561.44
2023-09-16T21:33:07.030Z,100563.28
2023-09-16T21:35:33.805Z,100559.94
2023-09-16T21:38:00.420Z,100554.31
2023-09-16T21:40:27.192Z,100561.22
2023-09-16T21:42:54.692Z,100559.13
2023-09-16T21:45:21.435Z,100554.75
2023-09-16T21:47:48.414Z,100554.09
2023-09-16T21:50:15.893Z,100556.81
2023-09-16T21:52:42.566Z,100559.78
2023-09-16T21:55:09.378Z,100557.69
2023-09-16T21:57:36.011Z,100563.94
2023-09-16T22:00:04.912Z,100561.22
2023-09-16T22:02:31.700Z,100568.94
2023-09-16T22:04:58.378Z,100571.47
2023-09-16T22:07:24.994Z,100565.59
2023-09-16T22:09:51.613Z,100566.03
2023-09-16T22:12:18.341Z,100566.47
2023-09-16T22:14:44.968Z,100565.22
2023-09-16T22:17:11.591Z,100566.03
2023-09-16T22:19:38.249Z,100563.13
2023-09-16T22:22:04.990Z,100557.69
2023-09-16T22:24:32.432Z,100558.72
2023-09-16T22:26:59.055Z,100562.09
2023-09-16T22:29:25.720Z,100561.44
2023-09-16T22:31:52.403Z,100563.53
2023-09-16T22:34:19.520Z,100571.25
2023-09-16T22:36:46.212Z,100561.69
2023-09-16T22:39:13.098Z,100566.47
2023-09-16T22:41:39.727Z,100563.94
2023-09-16T22:44:06.454Z,100561.44
2023-09-16T22:46:35.789Z,100568.56
2023-09-16T22:49:03.796Z,100574.81
2023-09-16T22:51:31.204Z,100573.78
2023-09-16T22:53:57.822Z,100570.63
2023-09-16T22:56:24.481Z,100572.28
2023-09-16T22:58:51.609Z,100570.00
2023-09-16T23:01:18.503Z,100569.78
2023-09-16T23:03:45.328Z,100571.88
2023-09-16T23:06:11.913Z,100579.59
2023-09-16T23:08:38.485Z,100573.75
2023-09-16T23:11:05.067Z,100574.38
2023-09-16T23:13:31.739Z,100565.59
2023-09-16T23:15:58.352Z,100574.09
2023-09-16T23:18:25.033Z,100568.69
2023-09-16T23:20:58.764Z,100574.75
2023-09-16T23:23:26.579Z,100573.75
2023-09-16T23:25:55.325Z,100574.84
2023-09-16T23:28:22.203Z,100580.28
2023-09-16T23:30:48.913Z,100579.44
2023-09-16T23:33:17.240Z,100573.56
2023-09-16T23:35:44.274Z,100577.13
2023-09-16T23:38:14.374Z,100579.81
2023-09-16T23:40:42.860Z,100573.34
2023-09-16T23:43:09.601Z,100575.44
2023-09-16T23:45:36.874Z,100575.03
2023-09-16T23:48:06.600Z,100579.00
2023-09-16T23:50:33.883Z,100580.69
2023-09-16T23:53:00.805Z,100572.34
2023-09-16T23:55:27.721Z,100574.63
2023-09-16T23:57:54.812Z,100577.56
